createdAt,value
2023-05-23T00:04:36.718Z,99636.38
2023-05-23T00:09:38.164Z,99628.22
2023-05-23T00:14:40.132Z,99634.72
2023-05-23T00:19:45.363Z,99644.34
2023-05-23T00:24:46.797Z,99654.69
2023-05-23T00:29:48.236Z,99661.53
2023-05-23T00:34:49.666Z,99668.91
2023-05-23T00:39:51.102Z,99675.78
2023-05-23T00:44:52.547Z,99676.38
2023-05-23T00:49:53.970Z,99661.59
2023-05-23T00:54:55.705Z,99657.53
2023-05-23T00:59:57.137Z,99641.34
2023-05-23T01:04:58.827Z,99644.31
2023-05-23T01:10:00.945Z,99642.16
2023-05-23T01:15:08.511Z,99664.78
2023-05-23T01:20:12.546Z,99661.63
2023-05-23T01:25:40.049Z,99654.59
2023-05-23T01:30:41.768Z,99654.50
2023-05-23T01:35:43.850Z,99661.25
2023-05-23T01:40:45.376Z,99661.75
2023-05-23T01:45:46.833Z,99676.00
2023-05-23T01:50:48.423Z,99668.41
2023-05-23T01:55:50.950Z,99663.50
2023-05-23T02:00:52.449Z,99662.09
2023-05-23T02:05:53.908Z,99661.34
2023-05-23T02:10:55.353Z,99652.06
2023-05-23T02:15:56.783Z,99652.06
2023-05-23T02:20:58.202Z,99641.13
2023-05-23T02:25:59.632Z,99628.78
2023-05-23T02:31:01.504Z,99611.50
2023-05-23T02:36:03.540Z,99600.56
2023-05-23T02:41:05.008Z,99598.47
2023-05-23T02:46:06.469Z,99600.09
2023-05-23T02:51:08.031Z,99594.59
2023-05-23T02:56:09.760Z,99591.53
2023-05-23T03:01:11.935Z,99577.66
2023-05-23T03:06:14.504Z,99561.25
2023-05-23T03:11:16.379Z,99565.34
2023-05-23T03:16:17.869Z,99555.44
2023-05-23T03:21:19.404Z,99556.31
2023-05-23T03:26:21.942Z,99564.25
2023-05-23T03:31:23.484Z,99556.06
2023-05-23T03:36:28.329Z,99556.06
2023-05-23T03:41:29.836Z,99554.88
2023-05-23T03:46:31.608Z,99551.16
2023-05-23T03:51:34.098Z,99554.13
2023-05-23T03:56:35.637Z,99553.56
2023-05-23T04:01:37.137Z,99566.91
2023-05-23T04:06:38.764Z,99574.38
2023-05-23T04:11:40.265Z,99585.81
2023-05-23T04:16:41.959Z,99592.34
2023-05-23T04:21:43.614Z,99590.97
2023-05-23T04:26:45.103Z,99587.66
2023-05-23T04:31:46.758Z,99602.78
2023-05-23T04:36:49.291Z,99618.06
2023-05-23T04:41:51.255Z,99612.00
2023-05-23T04:46:52.773Z,99604.91
2023-05-23T04:51:54.221Z,99622.44
2023-05-23T04:56:55.672Z,99615.63
2023-05-23T05:01:57.107Z,99612.31
2023-05-23T05:06:58.534Z,99604.41
2023-05-23T05:11:59.992Z,99615.34
2023-05-23T05:17:02.607Z,99617.84
2023-05-23T05:22:04.571Z,99621.59
2023-05-23T05:27:06.098Z,99624.66
2023-05-23T05:32:08.872Z,99627.84
2023-05-23T05:37:13.971Z,99622.44
2023-05-23T05:42:15.403Z,99623.25
2023-05-23T05:47:16.834Z,99616.47
2023-05-23T05:52:18.325Z,99625.16
2023-05-23T05:57:19.793Z,99637.25
2023-05-23T06:02:21.282Z,99631.75
2023-05-23T06:07:22.818Z,99646.13
2023-05-23T06:12:24.245Z,99646.31
2023-05-23T06:17:25.841Z,99657.41
2023-05-23T06:22:27.272Z,99655.06
2023-05-23T06:27:28.711Z,99655.25
2023-05-23T06:32:30.215Z,99663.31
2023-05-23T06:37:31.687Z,99663.91
2023-05-23T06:42:33.147Z,99670.25
2023-05-23T06:47:34.607Z,99676.00
2023-05-23T06:52:36.050Z,99675.81
2023-05-23T06:57:37.569Z,99683.50
2023-05-23T07:02:39.118Z,99689.25
2023-05-23T07:07:40.780Z,99681.06
2023-05-23T07:12:42.295Z,99678.91
2023-05-23T07:17:44.442Z,99677.56
2023-05-23T07:22:45.928Z,99686.00
2023-05-23T07:27:47.422Z,99686.59
2023-05-23T07:32:49.192Z,99690.13
2023-05-23T07:37:50.880Z,99688.00
2023-05-23T07:42:53.156Z,99685.53
2023-05-23T07:47:54.660Z,99685.53
2023-05-23T07:52:56.526Z,99689.72
2023-05-23T07:57:57.999Z,99689.22
2023-05-23T08:02:59.453Z,99687.59
2023-05-23T08:08:01.060Z,99683.50
2023-05-23T08:13:06.682Z,99680.25
2023-05-23T08:18:08.297Z,99700.75
2023-05-23T08:23:09.875Z,99693.09
2023-05-23T08:28:11.284Z,99689.03
2023-05-23T08:33:12.963Z,99701.31
2023-05-23T08:38:14.426Z,99708.22
2023-05-23T08:43:15.950Z,99711.50
2023-05-23T08:48:17.365Z,99711.75
2023-05-23T08:53:20.407Z,99718.59
2023-05-23T08:58:22.899Z,99718.59
2023-05-23T09:03:27.707Z,99720.28
2023-05-23T09:08:29.132Z,99724.63
2023-05-23T09:13:31.260Z,99727.66
2023-05-23T09:18:39.997Z,99741.16
2023-05-23T09:23:41.511Z,99745.22
2023-05-23T09:28:43.278Z,99735.66
2023-05-23T09:33:49.113Z,99747.13
2023-05-23T09:38:52.317Z,99754.63
2023-05-23T09:43:54.407Z,99760.47
2023-05-23T09:48:56.401Z,99767.53
2023-05-23T09:53:57.820Z,99766.03
2023-05-23T09:58:59.275Z,99767.69
2023-05-23T10:04:00.841Z,99779.69
2023-05-23T10:09:05.720Z,99774.16
2023-05-23T10:14:09.023Z,99787.63
2023-05-23T10:19:43.630Z,99806.03
2023-05-23T10:24:45.188Z,99790.94
2023-05-23T10:29:46.809Z,99799.06
2023-05-23T10:35:01.933Z,99793.22
2023-05-23T10:40:12.108Z,99798.34
2023-05-23T10:45:17.992Z,99800.31
2023-05-23T10:50:36.952Z,99815.66
2023-05-23T10:55:38.426Z,99815.34
2023-05-23T11:00:40.131Z,99815.59
2023-05-23T11:05:47.362Z,99820.25
2023-05-23T11:10:52.304Z,99826.31
2023-05-23T11:15:53.975Z,99813.06
2023-05-23T11:20:55.532Z,99813.31
2023-05-23T11:25:57.070Z,99817.41
2023-05-23T11:30:58.490Z,99824.50
2023-05-23T11:36:00.437Z,99823.63
2023-05-23T11:41:01.879Z,99826.88
2023-05-23T11:46:09.578Z,99811.56
2023-05-23T11:51:11.053Z,99819.50
2023-05-23T11:56:14.236Z,99812.13
2023-05-23T12:01:16.644Z,99805.56
2023-05-23T12:06:21.286Z,99813.56
2023-05-23T12:11:24.502Z,99804.84
2023-05-23T12:16:25.989Z,99810.13
2023-05-23T12:21:28.838Z,99807.91
2023-05-23T12:26:30.599Z,99809.94
2023-05-23T12:31:32.069Z,99811.84
2023-05-23T12:36:35.077Z,99818.03
2023-05-23T12:41:37.739Z,99817.81
2023-05-23T12:46:39.259Z,99825.41
2023-05-23T12:51:40.881Z,99822.38
2023-05-23T12:56:42.345Z,99821.03
2023-05-23T13:01:43.909Z,99829.13
2023-05-23T13:06:45.560Z,99833.75
2023-05-23T13:11:46.982Z,99838.03
2023-05-23T13:16:48.494Z,99840.50
2023-05-23T13:21:50.207Z,99838.03
2023-05-23T13:26:51.737Z,99852.97
2023-05-23T13:31:53.876Z,99856.81
2023-05-23T13:36:55.529Z,99865.50
2023-05-23T13:41:56.982Z,99869.31
2023-05-23T13:46:58.477Z,99864.13
2023-05-23T13:51:59.921Z,99875.47
2023-05-23T13:57:01.671Z,99877.97
2023-05-23T14:02:03.538Z,99882.28
2023-05-23T14:07:05.053Z,99880.13
2023-05-23T14:12:06.693Z,99883.13
2023-05-23T14:17:08.158Z,99880.06
2023-05-23T14:22:09.604Z,99882.47
2023-05-23T14:27:11.527Z,99884.63
2023-05-23T14:32:13.341Z,99890.38
2023-05-23T14:37:14.913Z,99893.75
2023-05-23T14:42:16.329Z,99907.75
2023-05-23T14:47:17.944Z,99893.75
2023-05-23T14:52:19.435Z,99909.41
2023-05-23T14:57:20.881Z,99903.59
2023-05-23T15:02:22.403Z,99903.94
2023-05-23T15:07:23.846Z,99914.06
2023-05-23T15:12:25.439Z,99915.69
2023-05-23T15:17:27.144Z,99922.00
2023-05-23T15:27:33.075Z,99926.34
2023-05-23T15:32:34.555Z,99912.16
2023-05-23T15:37:36.010Z,99915.38
2023-05-23T15:42:37.421Z,99914.38
2023-05-23T15:47:38.910Z,99923.34
2023-05-23T15:52:40.425Z,99940.59
2023-05-23T15:57:41.854Z,99966.63
2023-05-23T16:02:44.332Z,99954.00
2023-05-23T16:07:45.791Z,99946.56
2023-05-23T16:12:47.227Z,99948.38
2023-05-23T16:17:48.696Z,99957.44
2023-05-23T16:22:50.200Z,99950.13
2023-05-23T16:27:51.624Z,99958.84
2023-05-23T16:32:53.280Z,99950.56
2023-05-23T16:37:54.799Z,99951.13
2023-05-23T16:42:56.337Z,99947.06
2023-05-23T16:47:57.816Z,99940.69
2023-05-23T16:52:59.305Z,99958.44
2023-05-23T16:58:00.742Z,99969.09
2023-05-23T17:03:02.352Z,99959.34
2023-05-23T17:08:03.854Z,99961.16
2023-05-23T17:13:05.643Z,99988.25
2023-05-23T17:18:07.308Z,99978.41
2023-05-23T17:23:10.468Z,99981.03
2023-05-23T17:28:11.909Z,99990.34
2023-05-23T17:33:13.442Z,100003.75
2023-05-23T17:38:14.877Z,100016.59
2023-05-23T17:43:16.328Z,100023.91
2023-05-23T17:48:17.772Z,100027.53
2023-05-23T17:53:19.192Z,100039.00
2023-05-23T17:58:20.648Z,100041.75
2023-05-23T18:03:22.923Z,100043.16
2023-05-23T18:08:24.356Z,100052.16
2023-05-23T18:13:25.840Z,100049.00
2023-05-23T18:18:27.278Z,100052.09
2023-05-23T18:23:28.709Z,100070.09
2023-05-23T18:28:30.172Z,100072.56
2023-05-23T18:33:31.865Z,100085.19
2023-05-23T18:38:33.392Z,100093.13
2023-05-23T18:43:34.844Z,100096.94
2023-05-23T18:48:36.397Z,100116.09
2023-05-23T18:53:39.550Z,100117.16
2023-05-23T18:58:42.214Z,100126.59
2023-05-23T19:03:45.654Z,100140.03
2023-05-23T19:08:47.595Z,100143.19
2023-05-23T19:13:49.007Z,100160.94
2023-05-23T19:18:50.991Z,100169.22
2023-05-23T19:23:52.459Z,100173.53
2023-05-23T19:28:53.891Z,100180.66
2023-05-23T19:33:55.322Z,100200.63
2023-05-23T19:38:56.824Z,100204.69
2023-05-23T19:43:58.843Z,100213.13
2023-05-23T19:49:00.823Z,100205.19
2023-05-23T19:54:02.453Z,100226.22
2023-05-23T19:59:03.978Z,100231.94
2023-05-23T20:04:07.036Z,100229.91
2023-05-23T20:09:08.937Z,100234.34
2023-05-23T20:14:10.411Z,100247.75
2023-05-23T20:19:11.905Z,100240.28
2023-05-23T20:24:14.845Z,100250.28
2023-05-23T20:29:16.300Z,100251.13
2023-05-23T20:34:17.726Z,100254.53
2023-05-23T20:39:21.830Z,100250.97
2023-05-23T20:44:23.635Z,100256.56
2023-05-23T20:49:26.766Z,100269.16
2023-05-23T20:54:28.199Z,100274.63
2023-05-23T20:59:30.422Z,100277.63
2023-05-23T21:04:31.919Z,100275.09
2023-05-23T21:09:33.345Z,100270.72
2023-05-23T21:14:34.767Z,100283.56
2023-05-23T21:19:36.221Z,100273.00
2023-05-23T21:24:37.708Z,100274.31
2023-05-23T21:29:39.135Z,100283.81
2023-05-23T21:34:40.634Z,100294.38
2023-05-23T21:39:51.411Z,100293.78
2023-05-23T21:44:53.601Z,100300.22
2023-05-23T21:49:55.106Z,100302.81
2023-05-23T21:54:56.529Z,100308.06
2023-05-23T21:59:57.959Z,100299.25
2023-05-23T22:04:59.454Z,100303.09
2023-05-23T22:10:00.878Z,100306.03
2023-05-23T22:15:02.299Z,100311.50
2023-05-23T22:20:05.228Z,100319.00
2023-05-23T22:25:10.197Z,100311.63
2023-05-23T22:30:11.870Z,100319.59
2023-05-23T22:35:13.640Z,100320.63
2023-05-23T22:40:15.298Z,100317.31
2023-05-23T22:45:16.758Z,100317.31
2023-05-23T22:50:18.222Z,100318.88
2023-05-23T22:55:19.676Z,100317.47
2023-05-23T23:00:21.407Z,100311.00
2023-05-23T23:05:22.983Z,100305.47
2023-05-23T23:10:24.527Z,100285.81
2023-05-23T23:15:25.959Z,100292.97
2023-05-23T23:20:27.478Z,100292.25
2023-05-23T23:25:30.205Z,100289.53
2023-05-23T23:30:31.711Z,100292.72
2023-05-23T23:35:33.138Z,100310.53
2023-05-23T23:40:34.625Z,100301.38
2023-05-23T23:45:36.047Z,100300.91
2023-05-23T23:50:37.481Z,100310.44
2023-05-23T23:55:38.925Z,100309.47
